Hovedside
METAR-TAF:

METAR-TAF

Lufthavner :

Oljeplattform

Euro, Nederland

breddegrad: 51-59-52N, lengdegrad: 3-16-30E, høyde over havet: 18 m

Gjeldene værobservasjon

Denne rapporten ble laget for 38 minutter siden, klokken 14:25 UTC
Vind 23 kt fra Sørvest
Temperatur 9°C
Luftfuktighet 81%
Trykk 1018 hPa
Sikt 10 km eller mer

METAR: EHSA 051425Z AUTO 22023KT 9999 ///////// 09/06 Q1018 W08/H12

Tid: 16:03 (15:03 UTC)


TAF: fraværende

Værobservasjoner og værvarsel for over 4000 flyplasser (METAR- og TAF-rapporter).

Tilgjengelige stasjoner er representert av de røde og gule prikkene på kartet.

Hold musepekeren over prikken for å se navnet på stasjonen.

Klikk så for å se værobservasjoner og -varsler.

For å forandre kartet kan du klikke på den grønne knappen med svart kryss for å zoome inn, på den grønne knappen med strek for å zoome ut, eller på de grønne pilene for å se tilstøtende kart.


METAR-TAF: